sensor_id;sensor_type;location;lat;lon;timestamp;temperature;humidity
53599;DHT22;39485;45.702;11.364;2023-04-25T02:41:42;10.80;99.90
53599;DHT22;39485;45.702;11.364;2023-04-25T02:44:07;10.80;99.90
53599;DHT22;39485;45.702;11.364;2023-04-25T02:46:33;10.80;99.90
53599;DHT22;39485;45.702;11.364;2023-04-25T02:48:58;10.80;99.90
53599;DHT22;39485;45.702;11.364;2023-04-25T02:51:24;10.90;99.90
53599;DHT22;39485;45.702;11.364;2023-04-25T02:53:50;10.90;99.90
53599;DHT22;39485;45.702;11.364;2023-04-25T02:56:15;10.90;99.90
53599;DHT22;39485;45.702;11.364;2023-04-25T02:58:41;10.90;99.90
53599;DHT22;39485;45.702;11.364;2023-04-25T03:01:07;10.90;99.90
53599;DHT22;39485;45.702;11.364;2023-04-25T03:03:32;10.90;99.90
53599;DHT22;39485;45.702;11.364;2023-04-25T03:05:58;10.90;99.90
53599;DHT22;39485;45.702;11.364;2023-04-25T03:08:24;10.90;99.90
53599;DHT22;39485;45.702;11.364;2023-04-25T03:10:50;10.90;99.90
53599;DHT22;39485;45.702;11.364;2023-04-25T03:13:17;10.90;99.90
53599;DHT22;39485;45.702;11.364;2023-04-25T03:15:43;11.00;99.90
53599;DHT22;39485;45.702;11.364;2023-04-25T03:18:09;11.00;99.90
53599;DHT22;39485;45.702;11.364;2023-04-25T03:20:35;11.00;99.90
53599;DHT22;39485;45.702;11.364;2023-04-25T03:23:01;11.10;99.90
53599;DHT22;39485;45.702;11.364;2023-04-25T03:25:26;11.10;99.90
53599;DHT22;39485;45.702;11.364;2023-04-25T03:27:52;11.00;99.90
53599;DHT22;39485;45.702;11.364;2023-04-25T03:30:17;11.00;99.90
53599;DHT22;39485;45.702;11.364;2023-04-25T03:32:43;11.00;99.90
53599;DHT22;39485;45.702;11.364;2023-04-25T03:35:09;11.00;99.90
53599;DHT22;39485;45.702;11.364;2023-04-25T03:37:35;10.90;99.90
53599;DHT22;39485;45.702;11.364;2023-04-25T03:40:00;10.90;99.90
53599;DHT22;39485;45.702;11.364;2023-04-25T03:42:26;10.80;99.90
53599;DHT22;39485;45.702;11.364;2023-04-25T03:44:52;10.80;99.90
53599;DHT22;39485;45.702;11.364;2023-04-25T03:47:18;10.80;99.90
53599;DHT22;39485;45.702;11.364;2023-04-25T03:49:43;10.80;99.90
53599;DHT22;39485;45.702;11.364;2023-04-25T03:52:10;10.80;99.90
53599;DHT22;39485;45.702;11.364;2023-04-25T03:54:35;10.80;99.90
53599;DHT22;39485;45.702;11.364;2023-04-25T03:57:01;10.90;99.90
53599;DHT22;39485;45.702;11.364;2023-04-25T03:59:27;10.90;99.90
53599;DHT22;39485;45.702;11.364;2023-04-25T04:01:53;10.90;99.90
53599;DHT22;39485;45.702;11.364;2023-04-25T04:04:19;10.90;99.90
53599;DHT22;39485;45.702;11.364;2023-04-25T04:06:45;10.90;99.90
53599;DHT22;39485;45.702;11.364;2023-04-25T04:09:11;10.90;99.90
53599;DHT22;39485;45.702;11.364;2023-04-25T04:11:38;10.90;99.90
53599;DHT22;39485;45.702;11.364;2023-04-25T04:14:05;10.90;99.90
53599;DHT22;39485;45.702;11.364;2023-04-25T04:16:31;10.90;99.90
53599;DHT22;39485;45.702;11.364;2023-04-25T04:18:57;10.90;99.90
53599;DHT22;39485;45.702;11.364;2023-04-25T04:21:23;10.90;99.90
53599;DHT22;39485;45.702;11.364;2023-04-25T04:23:48;10.90;99.90
53599;DHT22;39485;45.702;11.364;2023-04-25T04:26:14;10.90;99.90
53599;DHT22;39485;45.702;11.364;2023-04-25T04:28:42;10.90;99.90
53599;DHT22;39485;45.702;11.364;2023-04-25T04:31:10;10.90;99.90
53599;DHT22;39485;45.702;11.364;2023-04-25T04:33:35;10.90;99.90
53599;DHT22;39485;45.702;11.364;2023-04-25T04:36:02;10.90;99.90
53599;DHT22;39485;45.702;11.364;2023-04-25T04:38:29;10.80;99.90
53599;DHT22;39485;45.702;11.364;2023-04-25T04:40:55;10.80;99.90
53599;DHT22;39485;45.702;11.364;2023-04-25T04:43:21;10.80;99.90
53599;DHT22;39485;45.702;11.364;2023-04-25T04:45:48;10.90;99.90
53599;DHT22;39485;45.702;11.364;2023-04-25T04:48:15;10.90;99.90
53599;DHT22;39485;45.702;11.364;2023-04-25T04:50:43;10.90;99.90
53599;DHT22;39485;45.702;11.364;2023-04-25T04:53:10;10.90;99.90
53599;DHT22;39485;45.702;11.364;2023-04-25T04:55:36;10.80;99.90
53599;DHT22;39485;45.702;11.364;2023-04-25T04:58:01;10.80;99.90
53599;DHT22;39485;45.702;11.364;2023-04-25T05:00:27;10.80;99.90
53599;DHT22;39485;45.702;11.364;2023-04-25T05:02:55;10.80;99.90
53599;DHT22;39485;45.702;11.364;2023-04-25T05:05:20;10.70;99.90
53599;DHT22;39485;45.702;11.364;2023-04-25T05:07:46;10.80;99.90
53599;DHT22;39485;45.702;11.364;2023-04-25T05:10:12;10.80;99.90
53599;DHT22;39485;45.702;11.364;2023-04-25T05:12:37;10.80;99.90
53599;DHT22;39485;45.702;11.364;2023-04-25T05:15:03;10.70;99.90
53599;DHT22;39485;45.702;11.364;2023-04-25T05:17:29;10.70;99.90
53599;DHT22;39485;45.702;11.364;2023-04-25T05:19:55;10.70;99.90
53599;DHT22;39485;45.702;11.364;2023-04-25T05:22:21;10.70;99.90
53599;DHT22;39485;45.702;11.364;2023-04-25T05:24:46;10.70;99.90
53599;DHT22;39485;45.702;11.364;2023-04-25T05:27:16;10.70;99.90
53599;DHT22;39485;45.702;11.364;2023-04-25T05:29:42;10.70;99.90
53599;DHT22;39485;45.702;11.364;2023-04-25T05:32:07;10.70;99.90
53599;DHT22;39485;45.702;11.364;2023-04-25T05:34:34;10.60;99.90
53599;DHT22;39485;45.702;11.364;2023-04-25T05:37:00;10.60;99.90
53599;DHT22;39485;45.702;11.364;2023-04-25T05:39:26;10.50;99.90
53599;DHT22;39485;45.702;11.364;2023-04-25T05:41:52;10.40;99.90
53599;DHT22;39485;45.702;11.364;2023-04-25T05:44:18;10.40;99.90
53599;DHT22;39485;45.702;11.364;2023-04-25T05:46:43;10.30;99.90
53599;DHT22;39485;45.702;11.364;2023-04-25T05:49:09;10.30;99.90
53599;DHT22;39485;45.702;11.364;2023-04-25T05:51:35;10.20;99.90
53599;DHT22;39485;45.702;11.364;2023-04-25T05:54:01;10.20;99.90
53599;DHT22;39485;45.702;11.364;2023-04-25T05:56:26;10.20;99.90
53599;DHT22;39485;45.702;11.364;2023-04-25T05:58:52;10.20;99.90
53599;DHT22;39485;45.702;11.364;2023-04-25T06:01:18;10.20;99.90
53599;DHT22;39485;45.702;11.364;2023-04-25T06:03:43;10.20;99.90
53599;DHT22;39485;45.702;11.364;2023-04-25T06:06:09;10.10;99.90
53599;DHT22;39485;45.702;11.364;2023-04-25T06:08:35;10.10;99.90
53599;DHT22;39485;45.702;11.364;2023-04-25T06:11:00;10.00;99.90
53599;DHT22;39485;45.702;11.364;2023-04-25T06:13:26;10.00;99.90
53599;DHT22;39485;45.702;11.364;2023-04-25T06:15:52;9.90;99.90
53599;DHT22;39485;45.702;11.364;2023-04-25T06:18:17;9.80;99.90
53599;DHT22;39485;45.702;11.364;2023-04-25T06:20:43;9.80;99.90
53599;DHT22;39485;45.702;11.364;2023-04-25T06:23:09;9.70;99.90
53599;DHT22;39485;45.702;11.364;2023-04-25T06:25:34;9.70;99.90
53599;DHT22;39485;45.702;11.364;2023-04-25T06:28:00;9.60;99.90
53599;DHT22;39485;45.702;11.364;2023-04-25T06:30:26;9.50;99.90
53599;DHT22;39485;45.702;11.364;2023-04-25T06:32:52;9.50;99.90
53599;DHT22;39485;45.702;11.364;2023-04-25T06:35:18;9.50;99.90
53599;DHT22;39485;45.702;11.364;2023-04-25T06:37:44;9.50;99.90
53599;DHT22;39485;45.702;11.364;2023-04-25T06:40:10;9.50;99.90
53599;DHT22;39485;45.702;11.364;2023-04-25T06:42:36;9.50;99.90
53599;DHT22;39485;45.702;11.364;2023-04-25T06:45:02;9.50;99.90
53599;DHT22;39485;45.702;11.364;2023-04-25T06:47:28;9.40;99.90
53599;DHT22;39485;45.702;11.364;2023-04-25T06:49:55;9.40;99.90
53599;DHT22;39485;45.702;11.364;2023-04-25T06:52:21;9.40;99.90
53599;DHT22;39485;45.702;11.364;2023-04-25T06:54:47;9.30;99.90
53599;DHT22;39485;45.702;11.364;2023-04-25T06:57:13;9.30;99.90
53599;DHT22;39485;45.702;11.364;2023-04-25T06:59:38;9.20;99.90
53599;DHT22;39485;45.702;11.364;2023-04-25T07:02:04;9.20;99.90
53599;DHT22;39485;45.702;11.364;2023-04-25T07:04:31;9.20;99.90
53599;DHT22;39485;45.702;11.364;2023-04-25T07:06:57;9.10;99.90
53599;DHT22;39485;45.702;11.364;2023-04-25T07:09:22;9.20;99.90
53599;DHT22;39485;45.702;11.364;2023-04-25T07:11:48;9.20;99.90
53599;DHT22;39485;45.702;11.364;2023-04-25T07:14:14;9.20;99.90
53599;DHT22;39485;45.702;11.364;2023-04-25T07:16:40;9.20;99.90
53599;DHT22;39485;45.702;11.364;2023-04-25T07:19:06;9.10;99.90
53599;DHT22;39485;45.702;11.364;2023-04-25T07:21:32;9.20;99.90
53599;DHT22;39485;45.702;11.364;2023-04-25T07:23:58;9.20;99.90
53599;DHT22;39485;45.702;11.364;2023-04-25T07:26:23;9.20;99.90
53599;DHT22;39485;45.702;11.364;2023-04-25T07:28:50;9.10;99.90
53599;DHT22;39485;45.702;11.364;2023-04-25T07:31:17;9.20;99.90
53599;DHT22;39485;45.702;11.364;2023-04-25T07:33:44;9.20;99.90
53599;DHT22;39485;45.702;11.364;2023-04-25T07:36:11;9.20;99.90
53599;DHT22;39485;45.702;11.364;2023-04-25T07:38:36;9.20;99.90
53599;DHT22;39485;45.702;11.364;2023-04-25T07:41:02;9.20;99.90
53599;DHT22;39485;45.702;11.364;2023-04-25T07:43:28;9.20;99.90
53599;DHT22;39485;45.702;11.364;2023-04-25T07:45:53;9.30;99.90
53599;DHT22;39485;45.702;11.364;2023-04-25T07:48:19;9.30;99.90
53599;DHT22;39485;45.702;11.364;2023-04-25T07:50:45;9.20;99.90
53599;DHT22;39485;45.702;11.364;2023-04-25T07:53:10;9.20;99.90
53599;DHT22;39485;45.702;11.364;2023-04-25T07:55:36;9.30;99.90
53599;DHT22;39485;45.702;11.364;2023-04-25T07:58:05;9.30;99.90
53599;DHT22;39485;45.702;11.364;2023-04-25T08:00:31;9.40;99.90
53599;DHT22;39485;45.702;11.364;2023-04-25T08:02:57;9.40;99.90
53599;DHT22;39485;45.702;11.364;2023-04-25T08:05:22;9.40;99.90
53599;DHT22;39485;45.702;11.364;2023-04-25T08:07:48;9.50;99.90
53599;DHT22;39485;45.702;11.364;2023-04-25T08:10:13;9.50;99.90
53599;DHT22;39485;45.702;11.364;2023-04-25T08:12:39;9.60;99.90
53599;DHT22;39485;45.702;11.364;2023-04-25T08:15:05;9.60;99.90
53599;DHT22;39485;45.702;11.364;2023-04-25T08:17:31;9.70;99.90
53599;DHT22;39485;45.702;11.364;2023-04-25T08:19:57;9.80;99.90
53599;DHT22;39485;45.702;11.364;2023-04-25T08:22:23;9.90;99.90
53599;DHT22;39485;45.702;11.364;2023-04-25T08:24:48;9.90;99.90
53599;DHT22;39485;45.702;11.364;2023-04-25T08:27:14;10.00;99.90
53599;DHT22;39485;45.702;11.364;2023-04-25T08:29:42;10.10;99.90
53599;DHT22;39485;45.702;11.364;2023-04-25T08:32:07;10.20;99.90
53599;DHT22;39485;45.702;11.364;2023-04-25T08:34:33;10.40;99.90
53599;DHT22;39485;45.702;11.364;2023-04-25T08:36:59;10.70;99.90
53599;DHT22;39485;45.702;11.364;2023-04-25T08:39:25;10.90;99.90
53599;DHT22;39485;45.702;11.364;2023-04-25T08:41:51;11.10;99.90
53599;DHT22;39485;45.702;11.364;2023-04-25T08:44:19;11.10;99.90
53599;DHT22;39485;45.702;11.364;2023-04-25T08:46:47;11.20;99.90
53599;DHT22;39485;45.702;11.364;2023-04-25T08:49:17;11.30;99.90
53599;DHT22;39485;45.702;11.364;2023-04-25T08:51:46;11.40;99.90
53599;DHT22;39485;45.702;11.364;2023-04-25T08:54:13;11.50;99.90
53599;DHT22;39485;45.702;11.364;2023-04-25T08:56:47;11.60;99.90
53599;DHT22;39485;45.702;11.364;2023-04-25T08:59:13;11.70;99.90
53599;DHT22;39485;45.702;11.364;2023-04-25T09:01:39;11.90;99.90
53599;DHT22;39485;45.702;11.364;2023-04-25T09:04:05;12.10;99.90
53599;DHT22;39485;45.702;11.364;2023-04-25T09:06:32;12.30;99.90
53599;DHT22;39485;45.702;11.364;2023-04-25T09:09:03;12.50;99.90
53599;DHT22;39485;45.702;11.364;2023-04-25T09:11:29;12.60;99.90
53599;DHT22;39485;45.702;11.364;2023-04-25T09:14:14;12.80;99.90
53599;DHT22;39485;45.702;11.364;2023-04-25T09:19:32;13.10;99.90
53599;DHT22;39485;45.702;11.364;2023-04-25T09:22:00;13.20;99.90
53599;DHT22;39485;45.702;11.364;2023-04-25T09:24:41;13.30;99.90
53599;DHT22;39485;45.702;11.364;2023-04-25T09:27:10;13.50;99.90
53599;DHT22;39485;45.702;11.364;2023-04-25T09:29:37;13.70;99.90
53599;DHT22;39485;45.702;11.364;2023-04-25T09:34:46;13.90;99.90
53599;DHT22;39485;45.702;11.364;2023-04-25T09:37:24;14.00;99.90
53599;DHT22;39485;45.702;11.364;2023-04-25T09:40:00;14.10;99.90
53599;DHT22;39485;45.702;11.364;2023-04-25T09:42:29;14.10;99.90
53599;DHT22;39485;45.702;11.364;2023-04-25T09:44:57;14.30;99.90
53599;DHT22;39485;45.702;11.364;2023-04-25T09:47:24;14.40;99.90
53599;DHT22;39485;45.702;11.364;2023-04-25T09:49:52;14.50;99.90
53599;DHT22;39485;45.702;11.364;2023-04-25T09:52:23;14.60;99.90
53599;DHT22;39485;45.702;11.364;2023-04-25T09:54:50;14.60;99.90
53599;DHT22;39485;45.702;11.364;2023-04-25T09:59:46;14.50;99.90
53599;DHT22;39485;45.702;11.364;2023-04-25T10:02:14;14.50;99.90
53599;DHT22;39485;45.702;11.364;2023-04-25T10:04:41;14.40;99.90
53599;DHT22;39485;45.702;11.364;2023-04-25T10:07:08;14.30;99.90
53599;DHT22;39485;45.702;11.364;2023-04-25T10:09:37;14.30;99.90
53599;DHT22;39485;45.702;11.364;2023-04-25T10:12:05;14.40;99.90
53599;DHT22;39485;45.702;11.364;2023-04-25T10:14:31;14.50;99.90
53599;DHT22;39485;45.702;11.364;2023-04-25T10:16:58;14.50;99.90
53599;DHT22;39485;45.702;11.364;2023-04-25T10:19:25;14.50;99.90
53599;DHT22;39485;45.702;11.364;2023-04-25T10:24:39;14.60;99.90
53599;DHT22;39485;45.702;11.364;2023-04-25T10:27:05;14.70;99.90
53599;DHT22;39485;45.702;11.364;2023-04-25T10:29:31;14.70;99.90
53599;DHT22;39485;45.702;11.364;2023-04-25T10:31:57;14.70;99.90
53599;DHT22;39485;45.702;11.364;2023-04-25T10:34:43;14.80;99.90
53599;DHT22;39485;45.702;11.364;2023-04-25T10:37:12;14.80;99.90
53599;DHT22;39485;45.702;11.364;2023-04-25T10:39:41;14.80;99.90
53599;DHT22;39485;45.702;11.364;2023-04-25T10:42:07;14.80;99.90
53599;DHT22;39485;45.702;11.364;2023-04-25T10:44:37;14.80;99.90
53599;DHT22;39485;45.702;11.364;2023-04-25T10:47:03;14.90;99.90
53599;DHT22;39485;45.702;11.364;2023-04-25T10:49:35;15.00;99.90
53599;DHT22;39485;45.702;11.364;2023-04-25T11:00:10;15.50;99.90
53599;DHT22;39485;45.702;11.364;2023-04-25T11:02:41;15.60;99.90
53599;DHT22;39485;45.702;11.364;2023-04-25T11:05:08;15.60;99.90
53599;DHT22;39485;45.702;11.364;2023-04-25T11:07:44;15.40;99.90
53599;DHT22;39485;45.702;11.364;2023-04-25T11:10:14;15.40;99.90
53599;DHT22;39485;45.702;11.364;2023-04-25T11:12:39;15.40;99.90
53599;DHT22;39485;45.702;11.364;2023-04-25T11:15:07;15.40;99.90
53599;DHT22;39485;45.702;11.364;2023-04-25T11:17:33;15.40;99.90
53599;DHT22;39485;45.702;11.364;2023-04-25T11:20:00;15.40;99.90
53599;DHT22;39485;45.702;11.364;2023-04-25T11:22:28;15.40;99.90
53599;DHT22;39485;45.702;11.364;2023-04-25T11:24:55;15.40;99.90
53599;DHT22;39485;45.702;11.364;2023-04-25T11:27:21;15.40;99.90
53599;DHT22;39485;45.702;11.364;2023-04-25T11:29:47;15.30;99.90
53599;DHT22;39485;45.702;11.364;2023-04-25T11:32:17;15.40;99.90
53599;DHT22;39485;45.702;11.364;2023-04-25T11:34:43;15.50;99.90
53599;DHT22;39485;45.702;11.364;2023-04-25T11:37:10;15.60;99.90
53599;DHT22;39485;45.702;11.364;2023-04-25T11:39:37;15.60;99.90
53599;DHT22;39485;45.702;11.364;2023-04-25T11:42:04;15.50;99.90
53599;DHT22;39485;45.702;11.364;2023-04-25T11:44:31;15.40;99.90
53599;DHT22;39485;45.702;11.364;2023-04-25T11:46:56;15.40;99.90
53599;DHT22;39485;45.702;11.364;2023-04-25T11:49:22;15.40;99.90
53599;DHT22;39485;45.702;11.364;2023-04-25T11:51:50;15.50;99.90
53599;DHT22;39485;45.702;11.364;2023-04-25T11:54:16;15.60;99.90
53599;DHT22;39485;45.702;11.364;2023-04-25T11:56:45;15.70;99.90
53599;DHT22;39485;45.702;11.364;2023-04-25T11:59:11;15.90;99.90
53599;DHT22;39485;45.702;11.364;2023-04-25T12:01:40;16.00;99.90
53599;DHT22;39485;45.702;11.364;2023-04-25T12:06:38;16.00;99.90
53599;DHT22;39485;45.702;11.364;2023-04-25T12:09:11;15.90;99.90
53599;DHT22;39485;45.702;11.364;2023-04-25T12:14:12;15.80;99.90
53599;DHT22;39485;45.702;11.364;2023-04-25T12:16:45;15.60;99.90
53599;DHT22;39485;45.702;11.364;2023-04-25T12:19:19;15.50;99.90
53599;DHT22;39485;45.702;11.364;2023-04-25T12:21:46;15.40;99.90
53599;DHT22;39485;45.702;11.364;2023-04-25T12:24:17;15.20;99.90
53599;DHT22;39485;45.702;11.364;2023-04-25T12:27:06;15.00;99.90
53599;DHT22;39485;45.702;11.364;2023-04-25T12:29:35;14.90;99.90
53599;DHT22;39485;45.702;11.364;2023-04-25T12:32:01;14.70;99.90
53599;DHT22;39485;45.702;11.364;2023-04-25T12:34:27;14.60;99.90
53599;DHT22;39485;45.702;11.364;2023-04-25T12:36:53;14.60;99.90
53599;DHT22;39485;45.702;11.364;2023-04-25T12:39:23;14.50;99.90
53599;DHT22;39485;45.702;11.364;2023-04-25T12:41:50;14.40;99.90
53599;DHT22;39485;45.702;11.364;2023-04-25T12:44:16;14.30;99.90
53599;DHT22;39485;45.702;11.364;2023-04-25T12:46:42;14.20;99.90
53599;DHT22;39485;45.702;11.364;2023-04-25T12:49:08;14.10;99.90
53599;DHT22;39485;45.702;11.364;2023-04-25T12:51:35;14.10;99.90
53599;DHT22;39485;45.702;11.364;2023-04-25T12:54:02;14.00;99.90
53599;DHT22;39485;45.702;11.364;2023-04-25T12:56:29;13.90;99.90
53599;DHT22;39485;45.702;11.364;2023-04-25T12:58:55;13.80;99.90
53599;DHT22;39485;45.702;11.364;2023-04-25T13:01:21;13.60;99.90
53599;DHT22;39485;45.702;11.364;2023-04-25T13:03:47;13.60;99.90
53599;DHT22;39485;45.702;11.364;2023-04-25T13:06:13;13.40;99.90
53599;DHT22;39485;45.702;11.364;2023-04-25T13:08:41;13.40;99.90
53599;DHT22;39485;45.702;11.364;2023-04-25T13:11:07;13.40;99.90
53599;DHT22;39485;45.702;11.364;2023-04-25T13:13:33;13.30;99.90
53599;DHT22;39485;45.702;11.364;2023-04-25T13:16:03;13.20;99.90
53599;DHT22;39485;45.702;11.364;2023-04-25T13:18:30;13.00;99.90
53599;DHT22;39485;45.702;11.364;2023-04-25T13:20:56;12.70;99.90
53599;DHT22;39485;45.702;11.364;2023-04-25T13:23:24;12.50;99.90
53599;DHT22;39485;45.702;11.364;2023-04-25T13:25:50;12.30;99.90
53599;DHT22;39485;45.702;11.364;2023-04-25T13:28:16;12.10;99.90
53599;DHT22;39485;45.702;11.364;2023-04-25T13:30:42;11.80;99.90
53599;DHT22;39485;45.702;11.364;2023-04-25T13:33:07;11.60;99.90
53599;DHT22;39485;45.702;11.364;2023-04-25T13:35:35;11.30;99.90
53599;DHT22;39485;45.702;11.364;2023-04-25T13:38:02;11.20;99.90
53599;DHT22;39485;45.702;11.364;2023-04-25T13:40:28;11.10;99.90
53599;DHT22;39485;45.702;11.364;2023-04-25T13:42:55;10.90;99.90
53599;DHT22;39485;45.702;11.364;2023-04-25T13:45:21;10.90;99.90
53599;DHT22;39485;45.702;11.364;2023-04-25T13:47:46;10.90;99.90
53599;DHT22;39485;45.702;11.364;2023-04-25T13:50:12;10.80;99.90
53599;DHT22;39485;45.702;11.364;2023-04-25T13:52:39;10.80;99.90
53599;DHT22;39485;45.702;11.364;2023-04-25T13:55:05;10.80;99.90
53599;DHT22;39485;45.702;11.364;2023-04-25T13:57:33;10.90;99.90
53599;DHT22;39485;45.702;11.364;2023-04-25T13:59:59;10.80;99.90
53599;DHT22;39485;45.702;11.364;2023-04-25T14:02:25;10.90;99.90
53599;DHT22;39485;45.702;11.364;2023-04-25T14:04:51;10.90;99.90
53599;DHT22;39485;45.702;11.364;2023-04-25T14:07:18;10.90;99.90
53599;DHT22;39485;45.702;11.364;2023-04-25T14:09:46;10.90;99.90
53599;DHT22;39485;45.702;11.364;2023-04-25T14:12:12;10.90;99.90
53599;DHT22;39485;45.702;11.364;2023-04-25T14:14:37;11.00;99.90
53599;DHT22;39485;45.702;11.364;2023-04-25T14:17:03;11.00;99.90
53599;DHT22;39485;45.702;11.364;2023-04-25T14:19:29;11.10;99.90
53599;DHT22;39485;45.702;11.364;2023-04-25T14:21:55;11.10;99.90
53599;DHT22;39485;45.702;11.364;2023-04-25T14:24:21;11.20;99.90
53599;DHT22;39485;45.702;11.364;2023-04-25T14:26:47;11.20;99.90
53599;DHT22;39485;45.702;11.364;2023-04-25T14:29:13;11.10;99.90
53599;DHT22;39485;45.702;11.364;2023-04-25T14:31:39;11.20;99.90
53599;DHT22;39485;45.702;11.364;2023-04-25T14:34:05;11.10;99.90
53599;DHT22;39485;45.702;11.364;2023-04-25T14:36:31;11.10;99.90
53599;DHT22;39485;45.702;11.364;2023-04-25T14:38:58;11.10;99.90
53599;DHT22;39485;45.702;11.364;2023-04-25T14:41:24;11.20;99.90
53599;DHT22;39485;45.702;11.364;2023-04-25T14:43:50;11.30;99.90
53599;DHT22;39485;45.702;11.364;2023-04-25T14:46:16;11.40;99.90
53599;DHT22;39485;45.702;11.364;2023-04-25T14:48:42;11.50;99.90
53599;DHT22;39485;45.702;11.364;2023-04-25T14:51:08;11.60;99.90
53599;DHT22;39485;45.702;11.364;2023-04-25T14:53:33;11.60;99.90
53599;DHT22;39485;45.702;11.364;2023-04-25T14:55:59;11.60;99.90
53599;DHT22;39485;45.702;11.364;2023-04-25T14:58:25;11.70;99.90
53599;DHT22;39485;45.702;11.364;2023-04-25T15:00:51;11.80;99.90
53599;DHT22;39485;45.702;11.364;2023-04-25T15:03:17;11.90;99.90
53599;DHT22;39485;45.702;11.364;2023-04-25T15:05:43;11.90;99.90
53599;DHT22;39485;45.702;11.364;2023-04-25T15:08:09;12.00;99.90
53599;DHT22;39485;45.702;11.364;2023-04-25T15:10:36;12.00;99.90
53599;DHT22;39485;45.702;11.364;2023-04-25T15:13:03;12.10;99.90
53599;DHT22;39485;45.702;11.364;2023-04-25T15:15:29;12.20;99.90
53599;DHT22;39485;45.702;11.364;2023-04-25T15:17:55;12.30;99.90
53599;DHT22;39485;45.702;11.364;2023-04-25T15:20:21;12.40;99.90
53599;DHT22;39485;45.702;11.364;2023-04-25T15:22:47;12.60;99.90
53599;DHT22;39485;45.702;11.364;2023-04-25T15:25:15;12.70;99.90
53599;DHT22;39485;45.702;11.364;2023-04-25T15:27:43;12.80;99.90
53599;DHT22;39485;45.702;11.364;2023-04-25T15:30:12;12.80;99.90
53599;DHT22;39485;45.702;11.364;2023-04-25T15:32:39;12.80;99.90
53599;DHT22;39485;45.702;11.364;2023-04-25T15:35:06;12.90;99.90
53599;DHT22;39485;45.702;11.364;2023-04-25T15:37:35;12.90;99.90
53599;DHT22;39485;45.702;11.364;2023-04-25T15:40:13;13.00;99.90
53599;DHT22;39485;45.702;11.364;2023-04-25T15:42:41;13.10;99.90
53599;DHT22;39485;45.702;11.364;2023-04-25T15:45:09;13.20;99.90
53599;DHT22;39485;45.702;11.364;2023-04-25T15:47:35;13.30;99.90
53599;DHT22;39485;45.702;11.364;2023-04-25T15:50:06;13.50;99.90
53599;DHT22;39485;45.702;11.364;2023-04-25T15:52:33;13.60;99.90
53599;DHT22;39485;45.702;11.364;2023-04-25T15:55:25;13.60;99.90
53599;DHT22;39485;45.702;11.364;2023-04-25T15:57:51;13.70;99.90
53599;DHT22;39485;45.702;11.364;2023-04-25T16:00:17;13.70;99.90
53599;DHT22;39485;45.702;11.364;2023-04-25T16:02:45;13.70;99.90
53599;DHT22;39485;45.702;11.364;2023-04-25T16:05:11;13.70;99.90
53599;DHT22;39485;45.702;11.364;2023-04-25T16:07:38;13.70;99.90
53599;DHT22;39485;45.702;11.364;2023-04-25T16:10:04;13.80;99.90
53599;DHT22;39485;45.702;11.364;2023-04-25T16:12:30;13.90;99.90
53599;DHT22;39485;45.702;11.364;2023-04-25T16:14:56;13.90;99.90
53599;DHT22;39485;45.702;11.364;2023-04-25T16:17:26;13.90;99.90
53599;DHT22;39485;45.702;11.364;2023-04-25T16:19:55;13.90;99.90
53599;DHT22;39485;45.702;11.364;2023-04-25T16:22:21;13.90;99.90
53599;DHT22;39485;45.702;11.364;2023-04-25T16:24:47;13.90;99.90
53599;DHT22;39485;45.702;11.364;2023-04-25T16:27:13;13.90;99.90
53599;DHT22;39485;45.702;11.364;2023-04-25T16:29:39;13.90;99.90
53599;DHT22;39485;45.702;11.364;2023-04-25T16:32:05;13.90;99.90
53599;DHT22;39485;45.702;11.364;2023-04-25T16:34:31;13.90;99.90
53599;DHT22;39485;45.702;11.364;2023-04-25T16:36:57;13.80;99.90
53599;DHT22;39485;45.702;11.364;2023-04-25T16:39:22;13.70;99.90
53599;DHT22;39485;45.702;11.364;2023-04-25T16:41:48;13.60;99.90
53599;DHT22;39485;45.702;11.364;2023-04-25T16:44:14;13.50;99.90
53599;DHT22;39485;45.702;11.364;2023-04-25T16:46:41;13.40;99.90
53599;DHT22;39485;45.702;11.364;2023-04-25T16:49:07;13.20;99.90
53599;DHT22;39485;45.702;11.364;2023-04-25T16:51:32;13.20;99.90
53599;DHT22;39485;45.702;11.364;2023-04-25T16:53:59;13.10;99.90
53599;DHT22;39485;45.702;11.364;2023-04-25T16:56:25;13.00;99.90
53599;DHT22;39485;45.702;11.364;2023-04-25T16:58:50;13.00;99.90
53599;DHT22;39485;45.702;11.364;2023-04-25T17:01:17;12.90;99.90
53599;DHT22;39485;45.702;11.364;2023-04-25T17:03:45;12.80;99.90
53599;DHT22;39485;45.702;11.364;2023-04-25T17:06:11;12.80;99.90
53599;DHT22;39485;45.702;11.364;2023-04-25T17:08:37;12.70;99.90
53599;DHT22;39485;45.702;11.364;2023-04-25T17:11:02;12.70;99.90
53599;DHT22;39485;45.702;11.364;2023-04-25T17:13:28;12.70;99.90
53599;DHT22;39485;45.702;11.364;2023-04-25T17:15:54;12.70;99.90
53599;DHT22;39485;45.702;11.364;2023-04-25T17:18:21;12.70;99.90
53599;DHT22;39485;45.702;11.364;2023-04-25T17:20:47;12.60;99.90
53599;DHT22;39485;45.702;11.364;2023-04-25T17:23:13;12.60;99.90
53599;DHT22;39485;45.702;11.364;2023-04-25T17:25:38;12.60;99.90
53599;DHT22;39485;45.702;11.364;2023-04-25T17:28:04;12.50;99.90
53599;DHT22;39485;45.702;11.364;2023-04-25T17:30:30;12.50;99.90
53599;DHT22;39485;45.702;11.364;2023-04-25T17:32:57;12.40;99.90
53599;DHT22;39485;45.702;11.364;2023-04-25T17:35:23;12.30;99.90
53599;DHT22;39485;45.702;11.364;2023-04-25T17:37:49;12.30;99.90
53599;DHT22;39485;45.702;11.364;2023-04-25T17:40:17;12.20;99.90
53599;DHT22;39485;45.702;11.364;2023-04-25T17:42:43;12.10;99.90
53599;DHT22;39485;45.702;11.364;2023-04-25T17:45:09;12.10;99.90
53599;DHT22;39485;45.702;11.364;2023-04-25T17:47:37;12.00;99.90
53599;DHT22;39485;45.702;11.364;2023-04-25T17:50:09;11.90;99.90
53599;DHT22;39485;45.702;11.364;2023-04-25T17:53:10;11.90;99.90
53599;DHT22;39485;45.702;11.364;2023-04-25T17:55:38;11.80;99.90
53599;DHT22;39485;45.702;11.364;2023-04-25T17:58:10;11.70;99.90
53599;DHT22;39485;45.702;11.364;2023-04-25T18:00:36;11.60;99.90
53599;DHT22;39485;45.702;11.364;2023-04-25T18:03:02;11.50;99.90
53599;DHT22;39485;45.702;11.364;2023-04-25T18:05:28;11.40;99.90
53599;DHT22;39485;45.702;11.364;2023-04-25T18:07:54;11.30;99.90
53599;DHT22;39485;45.702;11.364;2023-04-25T18:10:20;11.30;99.90
53599;DHT22;39485;45.702;11.364;2023-04-25T18:12:45;11.20;99.90
53599;DHT22;39485;45.702;11.364;2023-04-25T18:15:11;11.20;99.90
53599;DHT22;39485;45.702;11.364;2023-04-25T18:17:37;11.20;99.90
53599;DHT22;39485;45.702;11.364;2023-04-25T18:20:13;11.10;99.90